sensor_id;sensor_type;location;lat;lon;timestamp;temperature;humidity
18611;DHT22;9435;52.122;5.502;2024-02-26T00:01:04;5.40;99.90
18611;DHT22;9435;52.122;5.502;2024-02-26T00:03:31;5.50;99.90
18611;DHT22;9435;52.122;5.502;2024-02-26T00:06:03;5.40;99.90
18611;DHT22;9435;52.122;5.502;2024-02-26T00:08:30;5.40;99.90
18611;DHT22;9435;52.122;5.502;2024-02-26T00:10:57;5.40;99.90
18611;DHT22;9435;52.122;5.502;2024-02-26T00:13:24;5.40;99.90
18611;DHT22;9435;52.122;5.502;2024-02-26T00:15:51;5.40;99.90
18611;DHT22;9435;52.122;5.502;2024-02-26T00:18:18;5.30;99.90
18611;DHT22;9435;52.122;5.502;2024-02-26T00:20:45;5.30;99.90
18611;DHT22;9435;52.122;5.502;2024-02-26T00:23:15;5.30;99.90
18611;DHT22;9435;52.122;5.502;2024-02-26T00:25:42;5.20;99.90
18611;DHT22;9435;52.122;5.502;2024-02-26T00:28:09;5.20;99.90
18611;DHT22;9435;52.122;5.502;2024-02-26T00:30:36;5.20;99.90
18611;DHT22;9435;52.122;5.502;2024-02-26T00:33:04;5.20;99.90
18611;DHT22;9435;52.122;5.502;2024-02-26T00:35:31;5.20;99.90
18611;DHT22;9435;52.122;5.502;2024-02-26T00:37:58;5.20;99.90
18611;DHT22;9435;52.122;5.502;2024-02-26T00:40:28;5.20;99.90
18611;DHT22;9435;52.122;5.502;2024-02-26T00:42:55;5.10;99.90
18611;DHT22;9435;52.122;5.502;2024-02-26T00:45:22;5.10;99.90
18611;DHT22;9435;52.122;5.502;2024-02-26T00:47:49;5.10;99.90
18611;DHT22;9435;52.122;5.502;2024-02-26T00:50:16;5.00;99.90
18611;DHT22;9435;52.122;5.502;2024-02-26T00:52:43;5.00;99.90
18611;DHT22;9435;52.122;5.502;2024-02-26T00:55:10;5.00;99.90
18611;DHT22;9435;52.122;5.502;2024-02-26T00:57:39;5.00;99.90
18611;DHT22;9435;52.122;5.502;2024-02-26T01:00:07;5.00;99.90
18611;DHT22;9435;52.122;5.502;2024-02-26T01:02:35;5.00;99.90
18611;DHT22;9435;52.122;5.502;2024-02-26T01:05:02;5.00;99.90
18611;DHT22;9435;52.122;5.502;2024-02-26T01:07:29;5.00;99.90
18611;DHT22;9435;52.122;5.502;2024-02-26T01:10:01;5.00;99.90
18611;DHT22;9435;52.122;5.502;2024-02-26T01:12:28;5.00;99.90
18611;DHT22;9435;52.122;5.502;2024-02-26T01:14:56;5.00;99.90
18611;DHT22;9435;52.122;5.502;2024-02-26T01:17:24;5.00;99.90
18611;DHT22;9435;52.122;5.502;2024-02-26T01:19:51;5.10;99.90
18611;DHT22;9435;52.122;5.502;2024-02-26T01:22:19;5.10;99.90
18611;DHT22;9435;52.122;5.502;2024-02-26T01:24:46;5.20;99.90
18611;DHT22;9435;52.122;5.502;2024-02-26T01:27:13;5.20;99.90
18611;DHT22;9435;52.122;5.502;2024-02-26T01:29:41;5.20;99.90
18611;DHT22;9435;52.122;5.502;2024-02-26T01:32:09;5.20;99.90
18611;DHT22;9435;52.122;5.502;2024-02-26T01:34:36;5.20;99.90
18611;DHT22;9435;52.122;5.502;2024-02-26T01:37:03;5.10;99.90
18611;DHT22;9435;52.122;5.502;2024-02-26T01:39:30;5.10;99.90
18611;DHT22;9435;52.122;5.502;2024-02-26T01:41:58;5.10;99.90
18611;DHT22;9435;52.122;5.502;2024-02-26T01:44:26;5.10;99.90
18611;DHT22;9435;52.122;5.502;2024-02-26T01:46:54;5.10;99.90
18611;DHT22;9435;52.122;5.502;2024-02-26T01:49:22;5.20;99.90
18611;DHT22;9435;52.122;5.502;2024-02-26T01:51:50;5.10;99.90
18611;DHT22;9435;52.122;5.502;2024-02-26T01:54:16;5.20;99.90
18611;DHT22;9435;52.122;5.502;2024-02-26T01:56:43;5.20;99.90
18611;DHT22;9435;52.122;5.502;2024-02-26T01:59:11;5.20;99.90
18611;DHT22;9435;52.122;5.502;2024-02-26T02:01:39;5.20;99.90
18611;DHT22;9435;52.122;5.502;2024-02-26T02:04:11;5.30;99.90
18611;DHT22;9435;52.122;5.502;2024-02-26T02:06:41;5.30;99.90
18611;DHT22;9435;52.122;5.502;2024-02-26T02:09:08;5.30;99.90
18611;DHT22;9435;52.122;5.502;2024-02-26T02:11:35;5.20;99.90
18611;DHT22;9435;52.122;5.502;2024-02-26T02:14:02;5.30;99.90
18611;DHT22;9435;52.122;5.502;2024-02-26T02:16:30;5.30;99.90
18611;DHT22;9435;52.122;5.502;2024-02-26T02:18:58;5.30;99.90
18611;DHT22;9435;52.122;5.502;2024-02-26T02:21:26;5.30;99.90
18611;DHT22;9435;52.122;5.502;2024-02-26T02:23:53;5.20;99.90
18611;DHT22;9435;52.122;5.502;2024-02-26T02:26:21;5.30;99.90
18611;DHT22;9435;52.122;5.502;2024-02-26T02:28:48;5.30;99.90
18611;DHT22;9435;52.122;5.502;2024-02-26T02:31:15;5.20;99.90
18611;DHT22;9435;52.122;5.502;2024-02-26T02:33:43;5.30;99.90
18611;DHT22;9435;52.122;5.502;2024-02-26T02:36:10;5.30;99.90
18611;DHT22;9435;52.122;5.502;2024-02-26T02:38:48;5.30;99.90
18611;DHT22;9435;52.122;5.502;2024-02-26T02:41:16;5.30;99.90
18611;DHT22;9435;52.122;5.502;2024-02-26T02:43:43;5.30;99.90
18611;DHT22;9435;52.122;5.502;2024-02-26T02:46:10;5.30;99.90
18611;DHT22;9435;52.122;5.502;2024-02-26T02:48:38;5.30;99.90
18611;DHT22;9435;52.122;5.502;2024-02-26T02:51:05;5.30;99.90
18611;DHT22;9435;52.122;5.502;2024-02-26T02:53:32;5.30;99.90
18611;DHT22;9435;52.122;5.502;2024-02-26T02:56:00;5.20;99.90
18611;DHT22;9435;52.122;5.502;2024-02-26T02:58:27;5.20;99.90
18611;DHT22;9435;52.122;5.502;2024-02-26T03:00:55;5.20;99.90
18611;DHT22;9435;52.122;5.502;2024-02-26T03:03:22;5.20;99.90
18611;DHT22;9435;52.122;5.502;2024-02-26T03:05:50;5.20;99.90
18611;DHT22;9435;52.122;5.502;2024-02-26T03:08:17;5.20;99.90
18611;DHT22;9435;52.122;5.502;2024-02-26T03:10:45;5.20;99.90
18611;DHT22;9435;52.122;5.502;2024-02-26T03:13:13;5.10;99.90
18611;DHT22;9435;52.122;5.502;2024-02-26T03:15:40;5.10;99.90
18611;DHT22;9435;52.122;5.502;2024-02-26T03:18:08;5.10;99.90
18611;DHT22;9435;52.122;5.502;2024-02-26T03:20:35;5.10;99.90
18611;DHT22;9435;52.122;5.502;2024-02-26T03:23:02;5.10;99.90
18611;DHT22;9435;52.122;5.502;2024-02-26T03:25:29;5.10;99.90
18611;DHT22;9435;52.122;5.502;2024-02-26T03:27:57;5.00;99.90
18611;DHT22;9435;52.122;5.502;2024-02-26T03:30:25;5.10;99.90
18611;DHT22;9435;52.122;5.502;2024-02-26T03:32:53;5.00;99.90
18611;DHT22;9435;52.122;5.502;2024-02-26T03:35:20;5.10;99.90
18611;DHT22;9435;52.122;5.502;2024-02-26T03:37:47;5.00;99.90
18611;DHT22;9435;52.122;5.502;2024-02-26T03:40:16;5.00;99.90
18611;DHT22;9435;52.122;5.502;2024-02-26T03:42:45;5.00;99.90
18611;DHT22;9435;52.122;5.502;2024-02-26T03:45:12;5.00;99.90
18611;DHT22;9435;52.122;5.502;2024-02-26T03:47:40;5.00;99.90
18611;DHT22;9435;52.122;5.502;2024-02-26T03:50:08;5.00;99.90
18611;DHT22;9435;52.122;5.502;2024-02-26T03:52:35;4.90;99.90
18611;DHT22;9435;52.122;5.502;2024-02-26T03:55:02;5.00;99.90
18611;DHT22;9435;52.122;5.502;2024-02-26T03:57:29;5.00;99.90
18611;DHT22;9435;52.122;5.502;2024-02-26T03:59:56;5.00;99.90
18611;DHT22;9435;52.122;5.502;2024-02-26T04:02:23;5.00;99.90
18611;DHT22;9435;52.122;5.502;2024-02-26T04:04:52;5.00;99.90
18611;DHT22;9435;52.122;5.502;2024-02-26T04:07:19;5.00;99.90
18611;DHT22;9435;52.122;5.502;2024-02-26T04:09:46;5.00;99.90
18611;DHT22;9435;52.122;5.502;2024-02-26T04:12:13;5.00;99.90
18611;DHT22;9435;52.122;5.502;2024-02-26T04:14:40;5.00;99.90
18611;DHT22;9435;52.122;5.502;2024-02-26T04:17:07;5.00;99.90
18611;DHT22;9435;52.122;5.502;2024-02-26T04:19:34;5.00;99.90
18611;DHT22;9435;52.122;5.502;2024-02-26T04:22:03;5.00;99.90
18611;DHT22;9435;52.122;5.502;2024-02-26T04:24:31;5.00;99.90
18611;DHT22;9435;52.122;5.502;2024-02-26T04:26:58;5.00;99.90
18611;DHT22;9435;52.122;5.502;2024-02-26T04:29:25;5.00;99.90
18611;DHT22;9435;52.122;5.502;2024-02-26T04:31:52;5.00;99.90
18611;DHT22;9435;52.122;5.502;2024-02-26T04:34:19;5.00;99.90
18611;DHT22;9435;52.122;5.502;2024-02-26T04:36:46;5.00;99.90
18611;DHT22;9435;52.122;5.502;2024-02-26T04:39:15;5.00;99.90
18611;DHT22;9435;52.122;5.502;2024-02-26T04:41:42;5.00;99.90
18611;DHT22;9435;52.122;5.502;2024-02-26T04:44:09;5.10;99.90
18611;DHT22;9435;52.122;5.502;2024-02-26T04:46:36;5.10;99.90
18611;DHT22;9435;52.122;5.502;2024-02-26T04:49:03;5.10;99.90
18611;DHT22;9435;52.122;5.502;2024-02-26T04:51:30;5.10;99.90
18611;DHT22;9435;52.122;5.502;2024-02-26T04:53:57;5.10;99.90
18611;DHT22;9435;52.122;5.502;2024-02-26T04:56:26;5.10;99.90
18611;DHT22;9435;52.122;5.502;2024-02-26T04:58:53;5.20;99.90
18611;DHT22;9435;52.122;5.502;2024-02-26T05:01:20;5.20;99.90
18611;DHT22;9435;52.122;5.502;2024-02-26T05:03:49;5.20;99.90
18611;DHT22;9435;52.122;5.502;2024-02-26T05:06:16;5.20;99.90
18611;DHT22;9435;52.122;5.502;2024-02-26T05:08:43;5.20;99.90
18611;DHT22;9435;52.122;5.502;2024-02-26T05:11:11;5.20;99.90
18611;DHT22;9435;52.122;5.502;2024-02-26T05:13:41;5.20;99.90
18611;DHT22;9435;52.122;5.502;2024-02-26T05:16:08;5.20;99.90
18611;DHT22;9435;52.122;5.502;2024-02-26T05:18:35;5.20;99.90
18611;DHT22;9435;52.122;5.502;2024-02-26T05:21:02;5.20;99.90
18611;DHT22;9435;52.122;5.502;2024-02-26T05:23:30;5.30;99.90
18611;DHT22;9435;52.122;5.502;2024-02-26T05:25:57;5.30;99.90
18611;DHT22;9435;52.122;5.502;2024-02-26T05:28:27;5.20;99.90
18611;DHT22;9435;52.122;5.502;2024-02-26T05:30:55;5.20;99.90
18611;DHT22;9435;52.122;5.502;2024-02-26T05:33:23;5.20;99.90
18611;DHT22;9435;52.122;5.502;2024-02-26T05:35:50;5.20;99.90
18611;DHT22;9435;52.122;5.502;2024-02-26T05:38:17;5.20;99.90
18611;DHT22;9435;52.122;5.502;2024-02-26T05:40:44;5.30;99.90
18611;DHT22;9435;52.122;5.502;2024-02-26T05:43:12;5.20;99.90
18611;DHT22;9435;52.122;5.502;2024-02-26T05:45:41;5.20;99.90
18611;DHT22;9435;52.122;5.502;2024-02-26T05:48:09;5.20;99.90
18611;DHT22;9435;52.122;5.502;2024-02-26T05:50:36;5.20;99.90
18611;DHT22;9435;52.122;5.502;2024-02-26T05:53:04;5.20;99.90
18611;DHT22;9435;52.122;5.502;2024-02-26T05:55:31;5.20;99.90
18611;DHT22;9435;52.122;5.502;2024-02-26T05:57:58;5.20;99.90
18611;DHT22;9435;52.122;5.502;2024-02-26T06:00:25;5.20;99.90
18611;DHT22;9435;52.122;5.502;2024-02-26T06:02:52;5.20;99.90
18611;DHT22;9435;52.122;5.502;2024-02-26T06:05:20;5.20;99.90
18611;DHT22;9435;52.122;5.502;2024-02-26T06:07:47;5.20;99.90
18611;DHT22;9435;52.122;5.502;2024-02-26T06:10:15;5.20;99.90
18611;DHT22;9435;52.122;5.502;2024-02-26T06:12:42;5.20;99.90
18611;DHT22;9435;52.122;5.502;2024-02-26T06:15:09;5.20;99.90
18611;DHT22;9435;52.122;5.502;2024-02-26T06:17:37;5.20;99.90
18611;DHT22;9435;52.122;5.502;2024-02-26T06:20:05;5.20;99.90
18611;DHT22;9435;52.122;5.502;2024-02-26T06:22:39;5.20;99.90
18611;DHT22;9435;52.122;5.502;2024-02-26T06:25:07;5.20;99.90
18611;DHT22;9435;52.122;5.502;2024-02-26T06:27:36;5.20;99.90
18611;DHT22;9435;52.122;5.502;2024-02-26T06:30:04;5.30;99.90
18611;DHT22;9435;52.122;5.502;2024-02-26T06:32:31;5.20;99.90
18611;DHT22;9435;52.122;5.502;2024-02-26T06:34:58;5.30;99.90
18611;DHT22;9435;52.122;5.502;2024-02-26T06:37:25;5.30;99.90
18611;DHT22;9435;52.122;5.502;2024-02-26T06:39:54;5.20;99.90
18611;DHT22;9435;52.122;5.502;2024-02-26T06:42:21;5.30;99.90
18611;DHT22;9435;52.122;5.502;2024-02-26T06:44:48;5.30;99.90
18611;DHT22;9435;52.122;5.502;2024-02-26T06:47:15;5.30;99.90
18611;DHT22;9435;52.122;5.502;2024-02-26T06:49:42;5.30;99.90
18611;DHT22;9435;52.122;5.502;2024-02-26T06:52:09;5.40;99.90
18611;DHT22;9435;52.122;5.502;2024-02-26T06:54:37;5.40;99.90
18611;DHT22;9435;52.122;5.502;2024-02-26T06:57:05;5.40;99.90
18611;DHT22;9435;52.122;5.502;2024-02-26T06:59:32;5.40;99.90
18611;DHT22;9435;52.122;5.502;2024-02-26T07:01:59;5.40;99.90
18611;DHT22;9435;52.122;5.502;2024-02-26T07:04:26;5.40;99.90
18611;DHT22;9435;52.122;5.502;2024-02-26T07:06:54;5.40;99.90
18611;DHT22;9435;52.122;5.502;2024-02-26T07:09:21;5.40;99.90
18611;DHT22;9435;52.122;5.502;2024-02-26T07:11:48;5.50;99.90
18611;DHT22;9435;52.122;5.502;2024-02-26T07:14:16;5.50;99.90
18611;DHT22;9435;52.122;5.502;2024-02-26T07:16:43;5.50;99.90
18611;DHT22;9435;52.122;5.502;2024-02-26T07:19:10;5.50;99.90
18611;DHT22;9435;52.122;5.502;2024-02-26T07:21:38;5.50;99.90
18611;DHT22;9435;52.122;5.502;2024-02-26T07:24:05;5.50;99.90
18611;DHT22;9435;52.122;5.502;2024-02-26T07:26:32;5.50;99.90
18611;DHT22;9435;52.122;5.502;2024-02-26T07:29:02;5.50;99.90
18611;DHT22;9435;52.122;5.502;2024-02-26T07:31:31;5.50;99.90
18611;DHT22;9435;52.122;5.502;2024-02-26T07:33:58;5.50;99.90
18611;DHT22;9435;52.122;5.502;2024-02-26T07:36:25;5.60;99.90
18611;DHT22;9435;52.122;5.502;2024-02-26T07:38:55;5.60;99.90
18611;DHT22;9435;52.122;5.502;2024-02-26T07:41:22;5.60;99.90
18611;DHT22;9435;52.122;5.502;2024-02-26T07:43:49;5.50;99.90
18611;DHT22;9435;52.122;5.502;2024-02-26T07:46:16;5.50;99.90
18611;DHT22;9435;52.122;5.502;2024-02-26T07:48:44;5.50;99.90
18611;DHT22;9435;52.122;5.502;2024-02-26T07:51:12;5.50;99.90
18611;DHT22;9435;52.122;5.502;2024-02-26T07:53:40;5.50;99.90
18611;DHT22;9435;52.122;5.502;2024-02-26T07:56:07;5.50;99.90
18611;DHT22;9435;52.122;5.502;2024-02-26T07:58:34;5.40;99.90
18611;DHT22;9435;52.122;5.502;2024-02-26T08:01:01;5.50;99.90
18611;DHT22;9435;52.122;5.502;2024-02-26T08:03:28;5.50;99.90
18611;DHT22;9435;52.122;5.502;2024-02-26T08:05:57;5.50;99.90
18611;DHT22;9435;52.122;5.502;2024-02-26T08:08:24;5.50;99.90
18611;DHT22;9435;52.122;5.502;2024-02-26T08:10:51;5.50;99.90
18611;DHT22;9435;52.122;5.502;2024-02-26T08:13:18;5.50;99.90
18611;DHT22;9435;52.122;5.502;2024-02-26T08:15:45;5.50;99.90
18611;DHT22;9435;52.122;5.502;2024-02-26T08:18:12;5.50;99.90
18611;DHT22;9435;52.122;5.502;2024-02-26T08:20:39;5.50;99.90
18611;DHT22;9435;52.122;5.502;2024-02-26T08:23:08;5.50;99.90
18611;DHT22;9435;52.122;5.502;2024-02-26T08:25:35;5.50;99.90
18611;DHT22;9435;52.122;5.502;2024-02-26T08:28:02;5.50;99.90
18611;DHT22;9435;52.122;5.502;2024-02-26T08:30:29;5.50;99.90
18611;DHT22;9435;52.122;5.502;2024-02-26T08:32:56;5.50;99.90
18611;DHT22;9435;52.122;5.502;2024-02-26T08:35:23;5.50;99.90
18611;DHT22;9435;52.122;5.502;2024-02-26T08:37:50;5.50;99.90
18611;DHT22;9435;52.122;5.502;2024-02-26T08:40:19;5.50;99.90
18611;DHT22;9435;52.122;5.502;2024-02-26T08:42:46;5.60;99.90
18611;DHT22;9435;52.122;5.502;2024-02-26T08:45:13;5.60;99.90
18611;DHT22;9435;52.122;5.502;2024-02-26T08:47:40;5.50;99.90
18611;DHT22;9435;52.122;5.502;2024-02-26T08:50:08;5.50;99.90
18611;DHT22;9435;52.122;5.502;2024-02-26T08:52:37;5.50;99.90
18611;DHT22;9435;52.122;5.502;2024-02-26T08:55:06;5.50;99.90
18611;DHT22;9435;52.122;5.502;2024-02-26T08:57:35;5.50;99.90
18611;DHT22;9435;52.122;5.502;2024-02-26T09:00:05;5.50;99.90
18611;DHT22;9435;52.122;5.502;2024-02-26T09:02:32;5.50;99.90
18611;DHT22;9435;52.122;5.502;2024-02-26T09:04:59;5.50;99.90
18611;DHT22;9435;52.122;5.502;2024-02-26T09:07:26;5.50;99.90
18611;DHT22;9435;52.122;5.502;2024-02-26T09:09:54;5.50;99.90
18611;DHT22;9435;52.122;5.502;2024-02-26T09:12:22;5.40;99.90
18611;DHT22;9435;52.122;5.502;2024-02-26T09:14:51;5.40;99.90
18611;DHT22;9435;52.122;5.502;2024-02-26T09:17:18;5.40;99.90
18611;DHT22;9435;52.122;5.502;2024-02-26T09:19:45;5.40;99.90
18611;DHT22;9435;52.122;5.502;2024-02-26T09:22:12;5.50;99.90
18611;DHT22;9435;52.122;5.502;2024-02-26T09:24:39;5.40;99.90
18611;DHT22;9435;52.122;5.502;2024-02-26T09:27:06;5.50;99.90
18611;DHT22;9435;52.122;5.502;2024-02-26T09:29:35;5.40;99.90
18611;DHT22;9435;52.122;5.502;2024-02-26T09:32:04;5.50;99.90
18611;DHT22;9435;52.122;5.502;2024-02-26T09:34:31;5.50;99.90
18611;DHT22;9435;52.122;5.502;2024-02-26T09:36:59;5.50;99.90
18611;DHT22;9435;52.122;5.502;2024-02-26T09:39:26;5.50;99.90
18611;DHT22;9435;52.122;5.502;2024-02-26T09:41:53;5.50;99.90
18611;DHT22;9435;52.122;5.502;2024-02-26T09:44:21;5.50;99.90
18611;DHT22;9435;52.122;5.502;2024-02-26T09:46:49;5.50;99.90
18611;DHT22;9435;52.122;5.502;2024-02-26T09:49:18;5.50;99.90
18611;DHT22;9435;52.122;5.502;2024-02-26T09:51:47;5.50;99.90
18611;DHT22;9435;52.122;5.502;2024-02-26T09:54:17;5.50;99.90
18611;DHT22;9435;52.122;5.502;2024-02-26T09:56:48;5.60;99.90
18611;DHT22;9435;52.122;5.502;2024-02-26T09:59:17;5.60;99.90
18611;DHT22;9435;52.122;5.502;2024-02-26T10:01:45;5.50;99.90
18611;DHT22;9435;52.122;5.502;2024-02-26T10:04:13;5.60;99.90
18611;DHT22;9435;52.122;5.502;2024-02-26T10:06:42;5.60;99.90
18611;DHT22;9435;52.122;5.502;2024-02-26T10:09:10;5.60;99.90
18611;DHT22;9435;52.122;5.502;2024-02-26T10:11:38;5.60;99.90
18611;DHT22;9435;52.122;5.502;2024-02-26T10:14:09;5.60;99.90
18611;DHT22;9435;52.122;5.502;2024-02-26T10:16:37;5.60;99.90
18611;DHT22;9435;52.122;5.502;2024-02-26T10:19:08;5.60;99.90
18611;DHT22;9435;52.122;5.502;2024-02-26T10:21:36;5.60;99.90
18611;DHT22;9435;52.122;5.502;2024-02-26T10:24:13;5.60;99.90
18611;DHT22;9435;52.122;5.502;2024-02-26T10:26:46;5.60;99.90
18611;DHT22;9435;52.122;5.502;2024-02-26T10:29:13;5.60;99.90
18611;DHT22;9435;52.122;5.502;2024-02-26T10:31:42;5.60;99.90
18611;DHT22;9435;52.122;5.502;2024-02-26T10:34:09;5.60;99.90
18611;DHT22;9435;52.122;5.502;2024-02-26T10:36:37;5.60;99.90
18611;DHT22;9435;52.122;5.502;2024-02-26T10:39:08;5.70;99.90
18611;DHT22;9435;52.122;5.502;2024-02-26T10:41:35;5.70;99.90
18611;DHT22;9435;52.122;5.502;2024-02-26T10:44:03;5.70;99.90
18611;DHT22;9435;52.122;5.502;2024-02-26T10:46:30;5.80;99.90
18611;DHT22;9435;52.122;5.502;2024-02-26T10:48:57;5.80;99.90
18611;DHT22;9435;52.122;5.502;2024-02-26T10:51:27;5.80;99.90
18611;DHT22;9435;52.122;5.502;2024-02-26T10:53:57;5.80;99.90
18611;DHT22;9435;52.122;5.502;2024-02-26T10:56:29;5.80;99.90
18611;DHT22;9435;52.122;5.502;2024-02-26T10:58:57;5.90;99.90
18611;DHT22;9435;52.122;5.502;2024-02-26T11:01:25;5.90;99.90
18611;DHT22;9435;52.122;5.502;2024-02-26T11:03:55;5.90;99.90
18611;DHT22;9435;52.122;5.502;2024-02-26T11:06:22;5.90;99.90
18611;DHT22;9435;52.122;5.502;2024-02-26T11:08:50;5.90;99.90
18611;DHT22;9435;52.122;5.502;2024-02-26T11:11:18;5.90;99.90
18611;DHT22;9435;52.122;5.502;2024-02-26T11:13:48;5.90;99.90
18611;DHT22;9435;52.122;5.502;2024-02-26T11:16:18;5.90;99.90
18611;DHT22;9435;52.122;5.502;2024-02-26T11:18:46;6.00;99.90
18611;DHT22;9435;52.122;5.502;2024-02-26T11:21:16;5.90;99.90
18611;DHT22;9435;52.122;5.502;2024-02-26T11:23:44;6.00;99.90
18611;DHT22;9435;52.122;5.502;2024-02-26T11:26:13;5.90;99.90
18611;DHT22;9435;52.122;5.502;2024-02-26T11:28:41;6.00;99.90
18611;DHT22;9435;52.122;5.502;2024-02-26T11:31:10;6.00;99.90
18611;DHT22;9435;52.122;5.502;2024-02-26T11:33:38;6.00;99.90
18611;DHT22;9435;52.122;5.502;2024-02-26T11:36:08;6.00;99.90
18611;DHT22;9435;52.122;5.502;2024-02-26T11:38:36;6.00;99.90
18611;DHT22;9435;52.122;5.502;2024-02-26T11:41:04;6.00;99.90
18611;DHT22;9435;52.122;5.502;2024-02-26T11:43:50;6.00;99.90
18611;DHT22;9435;52.122;5.502;2024-02-26T11:46:29;6.00;99.90
18611;DHT22;9435;52.122;5.502;2024-02-26T11:48:59;6.00;99.90
18611;DHT22;9435;52.122;5.502;2024-02-26T11:51:27;6.10;99.90
18611;DHT22;9435;52.122;5.502;2024-02-26T11:53:55;6.10;99.90
18611;DHT22;9435;52.122;5.502;2024-02-26T11:56:24;6.00;99.90
18611;DHT22;9435;52.122;5.502;2024-02-26T11:59:00;6.10;99.90
18611;DHT22;9435;52.122;5.502;2024-02-26T12:01:42;6.10;99.90
18611;DHT22;9435;52.122;5.502;2024-02-26T12:04:15;6.10;99.90
18611;DHT22;9435;52.122;5.502;2024-02-26T12:06:45;6.00;99.90
18611;DHT22;9435;52.122;5.502;2024-02-26T12:09:12;6.10;99.90
18611;DHT22;9435;52.122;5.502;2024-02-26T12:11:40;6.10;99.90
18611;DHT22;9435;52.122;5.502;2024-02-26T12:14:09;6.10;99.90
18611;DHT22;9435;52.122;5.502;2024-02-26T12:16:37;6.10;99.90
18611;DHT22;9435;52.122;5.502;2024-02-26T12:19:07;6.10;99.90
18611;DHT22;9435;52.122;5.502;2024-02-26T12:21:35;6.10;99.90
18611;DHT22;9435;52.122;5.502;2024-02-26T12:24:12;6.10;99.90
18611;DHT22;9435;52.122;5.502;2024-02-26T12:26:40;6.10;99.90
18611;DHT22;9435;52.122;5.502;2024-02-26T12:29:08;6.10;99.90
18611;DHT22;9435;52.122;5.502;2024-02-26T12:31:35;6.10;99.90
18611;DHT22;9435;52.122;5.502;2024-02-26T12:34:06;6.00;99.90
18611;DHT22;9435;52.122;5.502;2024-02-26T12:36:35;6.00;99.90
18611;DHT22;9435;52.122;5.502;2024-02-26T12:39:06;6.10;99.90
18611;DHT22;9435;52.122;5.502;2024-02-26T12:41:35;6.10;99.90
18611;DHT22;9435;52.122;5.502;2024-02-26T12:44:03;6.10;99.90
18611;DHT22;9435;52.122;5.502;2024-02-26T12:46:32;6.10;99.90
18611;DHT22;9435;52.122;5.502;2024-02-26T12:48:59;6.10;99.90
18611;DHT22;9435;52.122;5.502;2024-02-26T12:51:28;6.10;99.90
18611;DHT22;9435;52.122;5.502;2024-02-26T12:53:56;6.10;99.90
18611;DHT22;9435;52.122;5.502;2024-02-26T12:56:23;6.10;99.90
18611;DHT22;9435;52.122;5.502;2024-02-26T12:58:52;6.10;99.90
18611;DHT22;9435;52.122;5.502;2024-02-26T13:01:23;6.00;99.90
18611;DHT22;9435;52.122;5.502;2024-02-26T13:03:51;6.10;99.90
18611;DHT22;9435;52.122;5.502;2024-02-26T13:06:20;6.10;99.90
18611;DHT22;9435;52.122;5.502;2024-02-26T13:08:55;6.10;99.90
18611;DHT22;9435;52.122;5.502;2024-02-26T13:11:23;6.10;99.90
18611;DHT22;9435;52.122;5.502;2024-02-26T13:13:50;6.10;99.90
18611;DHT22;9435;52.122;5.502;2024-02-26T13:16:18;6.10;99.90
18611;DHT22;9435;52.122;5.502;2024-02-26T13:18:45;6.20;99.90
18611;DHT22;9435;52.122;5.502;2024-02-26T13:21:13;6.20;99.90
18611;DHT22;9435;52.122;5.502;2024-02-26T13:23:42;6.20;99.90
18611;DHT22;9435;52.122;5.502;2024-02-26T13:26:13;6.20;99.90
18611;DHT22;9435;52.122;5.502;2024-02-26T13:28:40;6.10;99.90
18611;DHT22;9435;52.122;5.502;2024-02-26T13:31:08;6.20;99.90
18611;DHT22;9435;52.122;5.502;2024-02-26T13:33:35;6.20;99.90
18611;DHT22;9435;52.122;5.502;2024-02-26T13:36:03;6.20;99.90
18611;DHT22;9435;52.122;5.502;2024-02-26T13:38:30;6.20;99.90
18611;DHT22;9435;52.122;5.502;2024-02-26T13:40:58;6.20;99.90
18611;DHT22;9435;52.122;5.502;2024-02-26T13:43:27;6.10;99.90
18611;DHT22;9435;52.122;5.502;2024-02-26T13:45:53;6.20;99.90
18611;DHT22;9435;52.122;5.502;2024-02-26T13:48:20;6.20;99.90
18611;DHT22;9435;52.122;5.502;2024-02-26T13:50:48;6.20;99.90
18611;DHT22;9435;52.122;5.502;2024-02-26T13:53:15;6.10;99.90
18611;DHT22;9435;52.122;5.502;2024-02-26T13:55:42;6.20;99.90
18611;DHT22;9435;52.122;5.502;2024-02-26T13:58:12;6.20;99.90
18611;DHT22;9435;52.122;5.502;2024-02-26T14:00:41;6.10;99.90
18611;DHT22;9435;52.122;5.502;2024-02-26T14:03:08;6.20;99.90
18611;DHT22;9435;52.122;5.502;2024-02-26T14:05:35;6.20;99.90
18611;DHT22;9435;52.122;5.502;2024-02-26T14:08:03;6.20;99.90
18611;DHT22;9435;52.122;5.502;2024-02-26T14:10:30;6.20;99.90
18611;DHT22;9435;52.122;5.502;2024-02-26T14:13:00;6.30;99.90
18611;DHT22;9435;52.122;5.502;2024-02-26T14:15:28;6.20;99.90
18611;DHT22;9435;52.122;5.502;2024-02-26T14:17:56;6.20;99.90
18611;DHT22;9435;52.122;5.502;2024-02-26T14:20:24;6.20;99.90
18611;DHT22;9435;52.122;5.502;2024-02-26T14:22:52;6.20;99.90
18611;DHT22;9435;52.122;5.502;2024-02-26T14:25:20;6.30;99.90
18611;DHT22;9435;52.122;5.502;2024-02-26T14:27:47;6.30;99.90
18611;DHT22;9435;52.122;5.502;2024-02-26T14:30:14;6.30;99.90
18611;DHT22;9435;52.122;5.502;2024-02-26T14:32:42;6.30;99.90
18611;DHT22;9435;52.122;5.502;2024-02-26T14:35:11;6.30;99.90
18611;DHT22;9435;52.122;5.502;2024-02-26T14:37:38;6.30;99.90
18611;DHT22;9435;52.122;5.502;2024-02-26T14:40:06;6.40;99.90
18611;DHT22;9435;52.122;5.502;2024-02-26T14:42:34;6.30;99.90
18611;DHT22;9435;52.122;5.502;2024-02-26T14:45:01;6.30;99.90
18611;DHT22;9435;52.122;5.502;2024-02-26T14:47:28;6.40;99.90
18611;DHT22;9435;52.122;5.502;2024-02-26T14:49:55;6.40;99.90
18611;DHT22;9435;52.122;5.502;2024-02-26T14:52:23;6.40;99.90
18611;DHT22;9435;52.122;5.502;2024-02-26T14:54:50;6.30;99.90
18611;DHT22;9435;52.122;5.502;2024-02-26T14:57:19;6.30;99.90
18611;DHT22;9435;52.122;5.502;2024-02-26T14:59:46;6.40;99.90
18611;DHT22;9435;52.122;5.502;2024-02-26T15:02:13;6.40;99.90
18611;DHT22;9435;52.122;5.502;2024-02-26T15:04:40;6.40;99.90
18611;DHT22;9435;52.122;5.502;2024-02-26T15:07:07;6.40;99.90
18611;DHT22;9435;52.122;5.502;2024-02-26T15:09:37;6.40;99.90
18611;DHT22;9435;52.122;5.502;2024-02-26T15:12:06;6.40;99.90
18611;DHT22;9435;52.122;5.502;2024-02-26T15:14:33;6.40;99.90
18611;DHT22;9435;52.122;5.502;2024-02-26T15:17:00;6.40;99.90
18611;DHT22;9435;52.122;5.502;2024-02-26T15:19:28;6.40;99.90
18611;DHT22;9435;52.122;5.502;2024-02-26T15:21:55;6.40;99.90
18611;DHT22;9435;52.122;5.502;2024-02-26T15:24:22;6.40;99.90
18611;DHT22;9435;52.122;5.502;2024-02-26T15:26:50;6.40;99.90
18611;DHT22;9435;52.122;5.502;2024-02-26T15:29:17;6.40;99.90
18611;DHT22;9435;52.122;5.502;2024-02-26T15:31:47;6.40;99.90
18611;DHT22;9435;52.122;5.502;2024-02-26T15:34:14;6.40;99.90
18611;DHT22;9435;52.122;5.502;2024-02-26T15:36:41;6.40;99.90
18611;DHT22;9435;52.122;5.502;2024-02-26T15:39:08;6.40;99.90
18611;DHT22;9435;52.122;5.502;2024-02-26T15:41:35;6.40;99.90
18611;DHT22;9435;52.122;5.502;2024-02-26T15:44:04;6.40;99.90
18611;DHT22;9435;52.122;5.502;2024-02-26T15:46:31;6.40;99.90
18611;DHT22;9435;52.122;5.502;2024-02-26T15:48:58;6.40;99.90
18611;DHT22;9435;52.122;5.502;2024-02-26T15:51:26;6.40;99.90
18611;DHT22;9435;52.122;5.502;2024-02-26T15:53:53;6.30;99.90
18611;DHT22;9435;52.122;5.502;2024-02-26T15:56:20;6.40;99.90
18611;DHT22;9435;52.122;5.502;2024-02-26T15:58:49;6.40;99.90
18611;DHT22;9435;52.122;5.502;2024-02-26T16:01:18;6.40;99.90
18611;DHT22;9435;52.122;5.502;2024-02-26T16:03:46;6.30;99.90
18611;DHT22;9435;52.122;5.502;2024-02-26T16:06:17;6.30;99.90